Schooner Bowdoin — WAM8653 — position and weather

sailwx.info

Track history (hours):
 
Tides and Currents Weather Stations Pressure Air Temp Water Temp Dewpoint Dewpoint Depression Visibility Wind Speed Wind Dir Waves Ship Positions

Schooner Bowdoin

Training vessel for Maine Maritime Academy.

Ship's website: http://bowdoin.mma.edu/

Owner: MAINE MARITIME ACADEMY, CASTINE, ME. More information available from US FCC via Universal Licensing System and Coast Guard Vessel Documentation Center.

Last reported at 2019-Aug-21 21:14 UTC. Time now 2019-Aug-22 10:10 UTC.
Position N 44°16' W 068°14'.

Length 28 m; draft 3.2 m.

Type: Sailing vessel. MMSI: 303498000.

Date/timePositionNaut miles runAvg speedWind from/ knotsBaromVisibWave heightAir tempDewpointWater temp
2019-Aug-21 21:14N 44°16' W 068°14'  
2019-Aug-14 18:17N 44°03' W 068°31'1 5.0
2019-Aug-14 18:00N 44°03' W 068°33'3 5.9
2019-Aug-14 17:27N 44°06' W 068°35'2 4.6
2019-Aug-14 17:01N 44°08' W 068°37'0 0.9
2019-Aug-14 16:30N 44°08' W 068°38'0 0.0
2019-Aug-14 16:00N 44°08' W 068°38'0 0.0
2019-Aug-14 15:30N 44°08' W 068°38'0 0.0
2019-Aug-14 15:00N 44°08' W 068°38'0 0.0
2019-Aug-14 14:30N 44°08' W 068°38'0 0.0
2019-Aug-14 14:00N 44°08' W 068°38'0 0.0
2019-Aug-14 13:30N 44°08' W 068°38'0 0.0
2019-Aug-14 13:00N 44°08' W 068°38'0 0.0
2019-Aug-14 12:30N 44°08' W 068°38'0 0.0
2019-Aug-14 12:00N 44°08' W 068°38'0 0.0
2019-Aug-14 11:30N 44°08' W 068°38'0 0.0
2019-Aug-14 11:00N 44°08' W 068°38'0 0.0
2019-Aug-14 10:30N 44°08' W 068°38'0 0.0
2019-Aug-14 10:00N 44°08' W 068°38'0 0.0
2019-Aug-14 09:30N 44°08' W 068°38'0 0.0
2019-Aug-14 09:00N 44°08' W 068°38'0 0.0
2019-Aug-14 08:30N 44°08' W 068°38'0 0.0
2019-Aug-14 08:01N 44°08' W 068°38'0 0.0
2019-Aug-14 07:30N 44°08' W 068°38'0 0.0
2019-Aug-14 07:00N 44°08' W 068°38'0 0.0
2019-Aug-14 06:30N 44°08' W 068°38'0 0.0
2019-Aug-14 06:00N 44°08' W 068°38'0 0.0
2019-Aug-14 05:30N 44°08' W 068°38'0 0.0
2019-Aug-14 05:00N 44°08' W 068°38'0 0.0
2019-Aug-14 04:30N 44°08' W 068°38'0 0.0
2019-Aug-14 03:59N 44°08' W 068°38'0 0.0
2019-Aug-14 03:30N 44°08' W 068°38'0 0.0
2019-Aug-14 03:00N 44°08' W 068°38'0 0.0
2019-Aug-14 02:30N 44°08' W 068°38'0 0.0
2019-Aug-14 02:00N 44°08' W 068°38'0 0.0
2019-Aug-14 01:30N 44°08' W 068°38'7 1.0
2019-Aug-13 18:32N 44°11' W 068°46'0 4.2
2019-Aug-13 18:30N 44°11' W 068°46'2 4.6
2019-Aug-13 18:00N 44°13' W 068°46'2 4.3
2019-Aug-13 17:30N 44°15' W 068°48'2 4.7
2019-Aug-13 17:01N 44°17' W 068°50'2 3.9
2019-Aug-13 16:30N 44°19' W 068°51'2 3.4
2019-Aug-13 16:00N 44°20' W 068°50'2 3.1
2019-Aug-13 15:27N 44°22' W 068°50'2 0.3
2019-Aug-13 08:22N 44°22' W 068°48'0 0.0
2019-Aug-13 02:38N 44°22' W 068°48'0 0.0
2019-Aug-13 02:24N 44°22' W 068°48'1 0.2
2019-Aug-12 20:33N 44°23' W 068°48'0 0.0
2019-Aug-12 20:30N 44°23' W 068°48'0 0.0
2019-Aug-12 19:55N 44°23' W 068°48'0 0.0
2019-Aug-12 18:14N 44°23' W 068°48'0 0.0
2019-Aug-12 13:10N 44°23' W 068°48'0 0.0
2019-Aug-12 13:00N 44°23' W 068°48'0 0.0
2019-Aug-12 12:30N 44°23' W 068°48'0 0.0
2019-Aug-12 12:00N 44°23' W 068°48'0 0.0
2019-Aug-12 11:29N 44°23' W 068°48'0 0.0
2019-Aug-12 11:00N 44°23' W 068°48'0 0.0
2019-Aug-12 10:25N 44°23' W 068°48'0 0.0
2019-Aug-12 10:00N 44°23' W 068°48'0 0.0
2019-Aug-12 09:30N 44°23' W 068°48'0 0.0
2019-Aug-12 09:00N 44°23' W 068°48'0 0.0
2019-Aug-12 08:30N 44°23' W 068°48'0 0.0
2019-Aug-12 08:00N 44°23' W 068°48'0 0.0
2019-Aug-12 07:30N 44°23' W 068°48'0 0.0
2019-Aug-12 07:00N 44°23' W 068°48'0 0.0
2019-Aug-12 06:30N 44°23' W 068°48'0 0.0
2019-Aug-12 05:47N 44°23' W 068°48'0 0.0
2019-Aug-12 05:30N 44°23' W 068°48'0 0.0
2019-Aug-12 05:00N 44°23' W 068°48'0 0.0
2019-Aug-12 04:30N 44°23' W 068°48'0 0.0
2019-Aug-12 03:59N 44°23' W 068°48'0 0.0
2019-Aug-12 03:30N 44°23' W 068°48'0 0.0
2019-Aug-12 03:00N 44°23' W 068°48'0 0.0
2019-Aug-12 02:29N 44°23' W 068°48'0 0.0
2019-Aug-12 02:00N 44°23' W 068°48'0 0.0
2019-Aug-12 01:29N 44°23' W 068°48'0 0.0
2019-Aug-12 01:00N 44°23' W 068°48'0 0.0
2019-Aug-12 00:27N 44°23' W 068°48'0 0.0
2019-Aug-11 23:56N 44°23' W 068°48'0 0.0
2019-Aug-11 23:30N 44°23' W 068°48'0 0.0
2019-Aug-11 22:57N 44°23' W 068°48'  
Track history (hours):
 
Tides and Currents Weather Stations Pressure Air Temp Water Temp Dewpoint Dewpoint Depression Visibility Wind Speed Wind Dir Waves Ship Positions

Schooner Bowdoin

Training vessel for Maine Maritime Academy.

Ship's website: http://bowdoin.mma.edu/

Owner: MAINE MARITIME ACADEMY, CASTINE, ME. More information available from US FCC via Universal Licensing System and Coast Guard Vessel Documentation Center.

Last reported at 2019-Aug-21 21:14 UTC. Time now 2019-Aug-22 10:10 UTC.
Position N 44°16' W 068°14'.

Length 28 m; draft 3.2 m.

Type: Sailing vessel. MMSI: 303498000.

Date/timePositionNaut miles runAvg speedWind from/ knotsBaromVisibWave heightAir tempDewpointWater temp
2019-Aug-21 21:14N 44°16' W 068°14'  
2019-Aug-14 18:17N 44°03' W 068°31'1 5.0
2019-Aug-14 18:00N 44°03' W 068°33'3 5.9
2019-Aug-14 17:27N 44°06' W 068°35'2 4.6
2019-Aug-14 17:01N 44°08' W 068°37'0 0.9
2019-Aug-14 16:30N 44°08' W 068°38'0 0.0
2019-Aug-14 16:00N 44°08' W 068°38'0 0.0
2019-Aug-14 15:30N 44°08' W 068°38'0 0.0
2019-Aug-14 15:00N 44°08' W 068°38'0 0.0
2019-Aug-14 14:30N 44°08' W 068°38'0 0.0
2019-Aug-14 14:00N 44°08' W 068°38'0 0.0
2019-Aug-14 13:30N 44°08' W 068°38'0 0.0
2019-Aug-14 13:00N 44°08' W 068°38'0 0.0
2019-Aug-14 12:30N 44°08' W 068°38'0 0.0
2019-Aug-14 12:00N 44°08' W 068°38'0 0.0
2019-Aug-14 11:30N 44°08' W 068°38'0 0.0
2019-Aug-14 11:00N 44°08' W 068°38'0 0.0
2019-Aug-14 10:30N 44°08' W 068°38'0 0.0
2019-Aug-14 10:00N 44°08' W 068°38'0 0.0
2019-Aug-14 09:30N 44°08' W 068°38'0 0.0
2019-Aug-14 09:00N 44°08' W 068°38'0 0.0
2019-Aug-14 08:30N 44°08' W 068°38'0 0.0
2019-Aug-14 08:01N 44°08' W 068°38'0 0.0
2019-Aug-14 07:30N 44°08' W 068°38'0 0.0
2019-Aug-14 07:00N 44°08' W 068°38'0 0.0
2019-Aug-14 06:30N 44°08' W 068°38'0 0.0
2019-Aug-14 06:00N 44°08' W 068°38'0 0.0
2019-Aug-14 05:30N 44°08' W 068°38'0 0.0
2019-Aug-14 05:00N 44°08' W 068°38'0 0.0
2019-Aug-14 04:30N 44°08' W 068°38'0 0.0
2019-Aug-14 03:59N 44°08' W 068°38'0 0.0
2019-Aug-14 03:30N 44°08' W 068°38'0 0.0
2019-Aug-14 03:00N 44°08' W 068°38'0 0.0
2019-Aug-14 02:30N 44°08' W 068°38'0 0.0
2019-Aug-14 02:00N 44°08' W 068°38'0 0.0
2019-Aug-14 01:30N 44°08' W 068°38'7 1.0
2019-Aug-13 18:32N 44°11' W 068°46'0 4.2
2019-Aug-13 18:30N 44°11' W 068°46'2 4.6
2019-Aug-13 18:00N 44°13' W 068°46'2 4.3
2019-Aug-13 17:30N 44°15' W 068°48'2 4.7
2019-Aug-13 17:01N 44°17' W 068°50'2 3.9
2019-Aug-13 16:30N 44°19' W 068°51'2 3.4
2019-Aug-13 16:00N 44°20' W 068°50'2 3.1
2019-Aug-13 15:27N 44°22' W 068°50'2 0.3
2019-Aug-13 08:22N 44°22' W 068°48'0 0.0
2019-Aug-13 02:38N 44°22' W 068°48'0 0.0
2019-Aug-13 02:24N 44°22' W 068°48'1 0.2
2019-Aug-12 20:33N 44°23' W 068°48'0 0.0
2019-Aug-12 20:30N 44°23' W 068°48'0 0.0
2019-Aug-12 19:55N 44°23' W 068°48'0 0.0
2019-Aug-12 18:14N 44°23' W 068°48'0 0.0
2019-Aug-12 13:10N 44°23' W 068°48'0 0.0
2019-Aug-12 13:00N 44°23' W 068°48'0 0.0
2019-Aug-12 12:30N 44°23' W 068°48'0 0.0
2019-Aug-12 12:00N 44°23' W 068°48'0 0.0
2019-Aug-12 11:29N 44°23' W 068°48'0 0.0
2019-Aug-12 11:00N 44°23' W 068°48'0 0.0
2019-Aug-12 10:25N 44°23' W 068°48'0 0.0
2019-Aug-12 10:00N 44°23' W 068°48'0 0.0
2019-Aug-12 09:30N 44°23' W 068°48'0 0.0
2019-Aug-12 09:00N 44°23' W 068°48'0 0.0
2019-Aug-12 08:30N 44°23' W 068°48'0 0.0
2019-Aug-12 08:00N 44°23' W 068°48'0 0.0
2019-Aug-12 07:30N 44°23' W 068°48'0 0.0
2019-Aug-12 07:00N 44°23' W 068°48'0 0.0
2019-Aug-12 06:30N 44°23' W 068°48'0 0.0
2019-Aug-12 05:47N 44°23' W 068°48'0 0.0
2019-Aug-12 05:30N 44°23' W 068°48'0 0.0
2019-Aug-12 05:00N 44°23' W 068°48'0 0.0
2019-Aug-12 04:30N 44°23' W 068°48'0 0.0
2019-Aug-12 03:59N 44°23' W 068°48'0 0.0
2019-Aug-12 03:30N 44°23' W 068°48'0 0.0
2019-Aug-12 03:00N 44°23' W 068°48'0 0.0
2019-Aug-12 02:29N 44°23' W 068°48'0 0.0
2019-Aug-12 02:00N 44°23' W 068°48'0 0.0
2019-Aug-12 01:29N 44°23' W 068°48'0 0.0
2019-Aug-12 01:00N 44°23' W 068°48'0 0.0
2019-Aug-12 00:27N 44°23' W 068°48'0 0.0
2019-Aug-11 23:56N 44°23' W 068°48'0 0.0
2019-Aug-11 23:30N 44°23' W 068°48'0 0.0
2019-Aug-11 22:57N 44°23' W 068°48'  

Dump ship's entire track history